Cosgrove, Iowa
Current Conditions -  °F | °C
As of 12:52 AM on Monday 22 Dec 2014 (Local Time) from KIOW Reporting Station
Overcast Overcast  
Wind Chill: 30°   Ceiling: 4100
Heat Index: 37°   Visibility: 7mi
Dew Point: 33°   Wind: 10mph
Humidity: 86%   Direction: 140°SE
Pressure: 29.86"   Gusts: NA
Location:  41.6512°N, 91.7745°W
Report Text: KIOW 220652Z AUTO 14009KT 7SM SCT020 BKN041 OVC055 03/01 A2986 RMK AO2 SLP115 T00280006
Loading
Personal Weather Stations






























Interactive Weather Map New forecast layout! Learn more

10-Day Weather Forecast

Advertisements
Track Severe Weather on mobile